sensor_id;sensor_type;location;lat;lon;timestamp;P1;durP1;ratioP1;P2;durP2;ratioP2
78344;SDS011;67620;51.134;6.548;2024-02-28T00:02:05;32.00;;;14.98;;
78344;SDS011;67620;51.134;6.548;2024-02-28T00:04:30;38.15;;;17.85;;
78344;SDS011;67620;51.134;6.548;2024-02-28T00:06:56;41.97;;;16.05;;
78344;SDS011;67620;51.134;6.548;2024-02-28T00:09:21;33.22;;;13.90;;
78344;SDS011;67620;51.134;6.548;2024-02-28T00:11:47;32.38;;;14.50;;
78344;SDS011;67620;51.134;6.548;2024-02-28T00:14:13;28.30;;;13.80;;
78344;SDS011;67620;51.134;6.548;2024-02-28T00:16:42;31.98;;;14.13;;
78344;SDS011;67620;51.134;6.548;2024-02-28T00:19:08;30.27;;;14.00;;
78344;SDS011;67620;51.134;6.548;2024-02-28T00:21:36;29.73;;;14.35;;
78344;SDS011;67620;51.134;6.548;2024-02-28T00:24:02;33.90;;;14.35;;
78344;SDS011;67620;51.134;6.548;2024-02-28T00:26:27;30.52;;;13.05;;
78344;SDS011;67620;51.134;6.548;2024-02-28T00:28:53;30.88;;;14.85;;
78344;SDS011;67620;51.134;6.548;2024-02-28T00:31:18;33.97;;;16.08;;
78344;SDS011;67620;51.134;6.548;2024-02-28T00:33:46;36.63;;;15.27;;
78344;SDS011;67620;51.134;6.548;2024-02-28T00:36:12;42.20;;;18.05;;
78344;SDS011;67620;51.134;6.548;2024-02-28T00:38:37;37.03;;;18.13;;
78344;SDS011;67620;51.134;6.548;2024-02-28T00:41:03;38.60;;;16.90;;
78344;SDS011;67620;51.134;6.548;2024-02-28T00:43:29;41.78;;;17.85;;
78344;SDS011;67620;51.134;6.548;2024-02-28T00:45:54;38.13;;;15.88;;
78344;SDS011;67620;51.134;6.548;2024-02-28T00:48:20;38.40;;;15.63;;
78344;SDS011;67620;51.134;6.548;2024-02-28T00:50:47;36.60;;;16.45;;
78344;SDS011;67620;51.134;6.548;2024-02-28T00:53:12;32.17;;;15.07;;
78344;SDS011;67620;51.134;6.548;2024-02-28T00:55:38;33.47;;;15.13;;
78344;SDS011;67620;51.134;6.548;2024-02-28T00:58:03;32.83;;;15.13;;
78344;SDS011;67620;51.134;6.548;2024-02-28T01:00:29;35.78;;;16.63;;
78344;SDS011;67620;51.134;6.548;2024-02-28T01:02:54;34.67;;;15.50;;
78344;SDS011;67620;51.134;6.548;2024-02-28T01:05:20;34.65;;;15.43;;
78344;SDS011;67620;51.134;6.548;2024-02-28T01:07:46;37.17;;;15.82;;
78344;SDS011;67620;51.134;6.548;2024-02-28T01:10:12;31.60;;;14.77;;
78344;SDS011;67620;51.134;6.548;2024-02-28T01:12:37;34.65;;;15.05;;
78344;SDS011;67620;51.134;6.548;2024-02-28T01:15:03;30.40;;;13.85;;
78344;SDS011;67620;51.134;6.548;2024-02-28T01:17:29;33.67;;;14.80;;
78344;SDS011;67620;51.134;6.548;2024-02-28T01:19:55;37.20;;;15.65;;
78344;SDS011;67620;51.134;6.548;2024-02-28T01:22:20;35.22;;;15.43;;
78344;SDS011;67620;51.134;6.548;2024-02-28T01:24:46;33.58;;;16.02;;
78344;SDS011;67620;51.134;6.548;2024-02-28T01:27:12;35.70;;;15.68;;
78344;SDS011;67620;51.134;6.548;2024-02-28T01:29:37;40.22;;;16.60;;
78344;SDS011;67620;51.134;6.548;2024-02-28T01:32:03;37.45;;;15.98;;
78344;SDS011;67620;51.134;6.548;2024-02-28T01:34:28;36.85;;;16.58;;
78344;SDS011;67620;51.134;6.548;2024-02-28T01:36:54;39.55;;;16.70;;
78344;SDS011;67620;51.134;6.548;2024-02-28T01:39:20;38.28;;;15.93;;
78344;SDS011;67620;51.134;6.548;2024-02-28T01:41:52;38.97;;;18.83;;
78344;SDS011;67620;51.134;6.548;2024-02-28T01:44:22;38.08;;;15.80;;
78344;SDS011;67620;51.134;6.548;2024-02-28T01:46:47;43.40;;;17.33;;
78344;SDS011;67620;51.134;6.548;2024-02-28T01:49:13;38.05;;;16.35;;
78344;SDS011;67620;51.134;6.548;2024-02-28T01:51:40;38.47;;;16.58;;
78344;SDS011;67620;51.134;6.548;2024-02-28T01:54:06;42.28;;;17.95;;
78344;SDS011;67620;51.134;6.548;2024-02-28T01:56:33;42.35;;;18.17;;
78344;SDS011;67620;51.134;6.548;2024-02-28T02:01:25;46.17;;;19.20;;
78344;SDS011;67620;51.134;6.548;2024-02-28T02:03:51;44.33;;;20.52;;
78344;SDS011;67620;51.134;6.548;2024-02-28T02:06:17;50.95;;;20.30;;
78344;SDS011;67620;51.134;6.548;2024-02-28T02:08:43;49.92;;;20.05;;
78344;SDS011;67620;51.134;6.548;2024-02-28T02:11:08;58.40;;;23.85;;
78344;SDS011;67620;51.134;6.548;2024-02-28T02:13:34;55.83;;;24.38;;
78344;SDS011;67620;51.134;6.548;2024-02-28T02:16:00;57.50;;;24.88;;
78344;SDS011;67620;51.134;6.548;2024-02-28T02:18:26;48.20;;;21.10;;
78344;SDS011;67620;51.134;6.548;2024-02-28T02:20:57;44.25;;;18.17;;
78344;SDS011;67620;51.134;6.548;2024-02-28T02:23:27;49.40;;;20.13;;
78344;SDS011;67620;51.134;6.548;2024-02-28T02:25:52;49.03;;;18.52;;
78344;SDS011;67620;51.134;6.548;2024-02-28T02:28:18;45.05;;;19.50;;
78344;SDS011;67620;51.134;6.548;2024-02-28T02:30:44;48.72;;;19.15;;
78344;SDS011;67620;51.134;6.548;2024-02-28T02:33:11;46.10;;;19.95;;
78344;SDS011;67620;51.134;6.548;2024-02-28T02:35:37;46.00;;;19.45;;
78344;SDS011;67620;51.134;6.548;2024-02-28T02:38:02;41.78;;;19.05;;
78344;SDS011;67620;51.134;6.548;2024-02-28T02:40:28;47.42;;;19.75;;
78344;SDS011;67620;51.134;6.548;2024-02-28T02:42:54;53.40;;;20.15;;
78344;SDS011;67620;51.134;6.548;2024-02-28T02:45:19;47.40;;;19.20;;
78344;SDS011;67620;51.134;6.548;2024-02-28T02:47:45;48.33;;;18.55;;
78344;SDS011;67620;51.134;6.548;2024-02-28T02:50:10;71.50;;;26.65;;
78344;SDS011;67620;51.134;6.548;2024-02-28T02:52:37;71.93;;;26.13;;
78344;SDS011;67620;51.134;6.548;2024-02-28T02:55:02;56.35;;;23.52;;
78344;SDS011;67620;51.134;6.548;2024-02-28T02:57:28;59.45;;;25.65;;
78344;SDS011;67620;51.134;6.548;2024-02-28T02:59:57;63.42;;;24.55;;
78344;SDS011;67620;51.134;6.548;2024-02-28T03:02:23;70.00;;;25.30;;
78344;SDS011;67620;51.134;6.548;2024-02-28T03:04:48;64.90;;;26.42;;
78344;SDS011;67620;51.134;6.548;2024-02-28T03:07:14;63.63;;;25.33;;
78344;SDS011;67620;51.134;6.548;2024-02-28T03:09:39;72.72;;;27.75;;
78344;SDS011;67620;51.134;6.548;2024-02-28T03:12:05;71.55;;;26.10;;
78344;SDS011;67620;51.134;6.548;2024-02-28T03:14:30;70.78;;;26.40;;
78344;SDS011;67620;51.134;6.548;2024-02-28T03:16:56;65.93;;;25.60;;
78344;SDS011;67620;51.134;6.548;2024-02-28T03:19:22;67.22;;;24.65;;
78344;SDS011;67620;51.134;6.548;2024-02-28T03:21:47;72.72;;;26.25;;
78344;SDS011;67620;51.134;6.548;2024-02-28T03:24:13;64.57;;;25.40;;
78344;SDS011;67620;51.134;6.548;2024-02-28T03:26:38;68.60;;;27.77;;
78344;SDS011;67620;51.134;6.548;2024-02-28T03:29:04;74.30;;;28.15;;
78344;SDS011;67620;51.134;6.548;2024-02-28T03:31:29;76.43;;;28.67;;
78344;SDS011;67620;51.134;6.548;2024-02-28T03:33:55;88.70;;;28.80;;
78344;SDS011;67620;51.134;6.548;2024-02-28T03:36:21;101.55;;;29.70;;
78344;SDS011;67620;51.134;6.548;2024-02-28T03:38:46;138.15;;;30.08;;
78344;SDS011;67620;51.134;6.548;2024-02-28T03:41:12;162.93;;;28.08;;
78344;SDS011;67620;51.134;6.548;2024-02-28T03:43:37;177.93;;;30.48;;
78344;SDS011;67620;51.134;6.548;2024-02-28T03:46:03;157.70;;;32.58;;
78344;SDS011;67620;51.134;6.548;2024-02-28T03:48:29;84.53;;;28.60;;
78344;SDS011;67620;51.134;6.548;2024-02-28T03:50:54;243.10;;;32.28;;
78344;SDS011;67620;51.134;6.548;2024-02-28T03:53:20;210.70;;;27.88;;
78344;SDS011;67620;51.134;6.548;2024-02-28T03:55:45;151.75;;;28.23;;
78344;SDS011;67620;51.134;6.548;2024-02-28T03:58:11;256.05;;;33.03;;
78344;SDS011;67620;51.134;6.548;2024-02-28T04:00:37;100.35;;;28.38;;
78344;SDS011;67620;51.134;6.548;2024-02-28T04:03:03;237.02;;;37.05;;
78344;SDS011;67620;51.134;6.548;2024-02-28T04:05:29;197.05;;;34.67;;
78344;SDS011;67620;51.134;6.548;2024-02-28T04:07:55;205.32;;;34.05;;
78344;SDS011;67620;51.134;6.548;2024-02-28T04:10:20;279.98;;;50.45;;
78344;SDS011;67620;51.134;6.548;2024-02-28T04:12:46;316.90;;;61.35;;
78344;SDS011;67620;51.134;6.548;2024-02-28T04:15:12;324.90;;;55.88;;
78344;SDS011;67620;51.134;6.548;2024-02-28T04:17:38;319.73;;;77.93;;
78344;SDS011;67620;51.134;6.548;2024-02-28T04:20:08;533.20;;;121.20;;
78344;SDS011;67620;51.134;6.548;2024-02-28T04:22:34;439.25;;;127.97;;
78344;SDS011;67620;51.134;6.548;2024-02-28T04:25:00;382.25;;;76.25;;
78344;SDS011;67620;51.134;6.548;2024-02-28T04:27:25;379.50;;;113.70;;
78344;SDS011;67620;51.134;6.548;2024-02-28T04:29:51;593.60;;;200.52;;
78344;SDS011;67620;51.134;6.548;2024-02-28T04:32:17;264.30;;;54.47;;
78344;SDS011;67620;51.134;6.548;2024-02-28T04:34:42;300.05;;;98.50;;
78344;SDS011;67620;51.134;6.548;2024-02-28T04:37:08;280.75;;;52.78;;
78344;SDS011;67620;51.134;6.548;2024-02-28T04:39:33;210.93;;;47.10;;
78344;SDS011;67620;51.134;6.548;2024-02-28T04:41:59;164.98;;;49.03;;
78344;SDS011;67620;51.134;6.548;2024-02-28T04:44:24;203.02;;;54.15;;
78344;SDS011;67620;51.134;6.548;2024-02-28T04:46:50;165.13;;;46.50;;
78344;SDS011;67620;51.134;6.548;2024-02-28T04:49:15;155.70;;;48.80;;
78344;SDS011;67620;51.134;6.548;2024-02-28T04:51:41;168.73;;;38.85;;
78344;SDS011;67620;51.134;6.548;2024-02-28T04:54:06;170.30;;;41.80;;
78344;SDS011;67620;51.134;6.548;2024-02-28T04:56:32;202.77;;;42.38;;
78344;SDS011;67620;51.134;6.548;2024-02-28T04:58:58;133.23;;;39.92;;
78344;SDS011;67620;51.134;6.548;2024-02-28T05:01:23;179.65;;;39.97;;
78344;SDS011;67620;51.134;6.548;2024-02-28T05:03:49;163.82;;;36.60;;
78344;SDS011;67620;51.134;6.548;2024-02-28T05:06:14;173.90;;;35.40;;
78344;SDS011;67620;51.134;6.548;2024-02-28T05:08:40;141.60;;;45.83;;
78344;SDS011;67620;51.134;6.548;2024-02-28T05:11:05;129.93;;;30.13;;
78344;SDS011;67620;51.134;6.548;2024-02-28T05:13:31;137.35;;;35.30;;
78344;SDS011;67620;51.134;6.548;2024-02-28T05:15:56;121.18;;;38.80;;
78344;SDS011;67620;51.134;6.548;2024-02-28T05:18:22;137.57;;;33.15;;
78344;SDS011;67620;51.134;6.548;2024-02-28T05:20:47;175.95;;;50.40;;
78344;SDS011;67620;51.134;6.548;2024-02-28T05:23:13;133.50;;;34.90;;
78344;SDS011;67620;51.134;6.548;2024-02-28T05:25:39;109.40;;;29.17;;
78344;SDS011;67620;51.134;6.548;2024-02-28T05:28:05;118.57;;;37.50;;
78344;SDS011;67620;51.134;6.548;2024-02-28T05:30:31;132.98;;;44.60;;
78344;SDS011;67620;51.134;6.548;2024-02-28T05:32:56;115.22;;;40.35;;
78344;SDS011;67620;51.134;6.548;2024-02-28T05:35:22;122.88;;;42.78;;
78344;SDS011;67620;51.134;6.548;2024-02-28T05:37:48;138.73;;;44.50;;
78344;SDS011;67620;51.134;6.548;2024-02-28T05:40:17;105.55;;;34.53;;
78344;SDS011;67620;51.134;6.548;2024-02-28T05:42:43;99.00;;;32.38;;
78344;SDS011;67620;51.134;6.548;2024-02-28T05:45:09;109.07;;;33.50;;
78344;SDS011;67620;51.134;6.548;2024-02-28T05:50:00;95.07;;;31.30;;
78344;SDS011;67620;51.134;6.548;2024-02-28T05:52:26;78.30;;;23.90;;
78344;SDS011;67620;51.134;6.548;2024-02-28T05:54:52;107.20;;;32.03;;
78344;SDS011;67620;51.134;6.548;2024-02-28T05:57:17;95.70;;;31.13;;
78344;SDS011;67620;51.134;6.548;2024-02-28T05:59:43;110.72;;;34.60;;
78344;SDS011;67620;51.134;6.548;2024-02-28T06:02:09;82.78;;;27.90;;
78344;SDS011;67620;51.134;6.548;2024-02-28T06:04:34;107.15;;;33.03;;
78344;SDS011;67620;51.134;6.548;2024-02-28T06:07:00;103.15;;;31.17;;
78344;SDS011;67620;51.134;6.548;2024-02-28T06:09:26;98.25;;;30.20;;
78344;SDS011;67620;51.134;6.548;2024-02-28T06:11:54;102.85;;;31.77;;
78344;SDS011;67620;51.134;6.548;2024-02-28T06:14:21;99.63;;;31.33;;
78344;SDS011;67620;51.134;6.548;2024-02-28T06:16:46;109.30;;;33.67;;
78344;SDS011;67620;51.134;6.548;2024-02-28T06:19:12;88.00;;;29.17;;
78344;SDS011;67620;51.134;6.548;2024-02-28T06:21:38;101.07;;;29.95;;
78344;SDS011;67620;51.134;6.548;2024-02-28T06:24:03;99.40;;;30.08;;
78344;SDS011;67620;51.134;6.548;2024-02-28T06:28:56;90.60;;;25.95;;
78344;SDS011;67620;51.134;6.548;2024-02-28T06:31:26;90.47;;;26.95;;
78344;SDS011;67620;51.134;6.548;2024-02-28T06:33:55;96.75;;;29.92;;
78344;SDS011;67620;51.134;6.548;2024-02-28T06:36:20;90.57;;;27.48;;
78344;SDS011;67620;51.134;6.548;2024-02-28T06:38:46;94.30;;;29.13;;
78344;SDS011;67620;51.134;6.548;2024-02-28T06:41:11;93.43;;;28.85;;
78344;SDS011;67620;51.134;6.548;2024-02-28T06:43:37;90.18;;;30.73;;
78344;SDS011;67620;51.134;6.548;2024-02-28T06:46:03;98.35;;;28.40;;
78344;SDS011;67620;51.134;6.548;2024-02-28T06:48:29;94.13;;;28.88;;
78344;SDS011;67620;51.134;6.548;2024-02-28T06:50:55;93.10;;;25.60;;
78344;SDS011;67620;51.134;6.548;2024-02-28T06:53:21;96.65;;;27.63;;
78344;SDS011;67620;51.134;6.548;2024-02-28T06:55:46;94.43;;;27.58;;
78344;SDS011;67620;51.134;6.548;2024-02-28T06:58:13;84.22;;;26.40;;
78344;SDS011;67620;51.134;6.548;2024-02-28T07:00:39;84.28;;;29.80;;
78344;SDS011;67620;51.134;6.548;2024-02-28T07:03:05;89.78;;;28.52;;
78344;SDS011;67620;51.134;6.548;2024-02-28T07:05:31;83.32;;;25.73;;
78344;SDS011;67620;51.134;6.548;2024-02-28T07:10:24;79.68;;;24.58;;
78344;SDS011;67620;51.134;6.548;2024-02-28T07:12:49;71.35;;;23.80;;
78344;SDS011;67620;51.134;6.548;2024-02-28T07:15:15;55.55;;;17.98;;
78344;SDS011;67620;51.134;6.548;2024-02-28T07:17:44;72.57;;;24.80;;
78344;SDS011;67620;51.134;6.548;2024-02-28T07:20:10;81.75;;;27.73;;
78344;SDS011;67620;51.134;6.548;2024-02-28T07:25:01;65.78;;;21.60;;
78344;SDS011;67620;51.134;6.548;2024-02-28T07:27:27;70.55;;;24.20;;
78344;SDS011;67620;51.134;6.548;2024-02-28T07:32:18;72.38;;;23.05;;
78344;SDS011;67620;51.134;6.548;2024-02-28T07:34:44;66.65;;;21.75;;
78344;SDS011;67620;51.134;6.548;2024-02-28T07:37:09;63.03;;;22.73;;
78344;SDS011;67620;51.134;6.548;2024-02-28T07:39:35;75.97;;;23.70;;
78344;SDS011;67620;51.134;6.548;2024-02-28T07:42:00;84.97;;;25.98;;
78344;SDS011;67620;51.134;6.548;2024-02-28T07:44:26;79.68;;;26.80;;
78344;SDS011;67620;51.134;6.548;2024-02-28T07:46:55;83.20;;;27.67;;
78344;SDS011;67620;51.134;6.548;2024-02-28T07:49:20;76.32;;;23.90;;
78344;SDS011;67620;51.134;6.548;2024-02-28T07:51:46;105.60;;;34.13;;
78344;SDS011;67620;51.134;6.548;2024-02-28T07:54:11;77.10;;;25.65;;
78344;SDS011;67620;51.134;6.548;2024-02-28T07:56:37;75.05;;;25.25;;
78344;SDS011;67620;51.134;6.548;2024-02-28T07:59:02;71.55;;;22.25;;
78344;SDS011;67620;51.134;6.548;2024-02-28T08:01:28;100.70;;;33.50;;
78344;SDS011;67620;51.134;6.548;2024-02-28T08:03:54;77.78;;;23.55;;
78344;SDS011;67620;51.134;6.548;2024-02-28T08:06:19;83.65;;;27.23;;
78344;SDS011;67620;51.134;6.548;2024-02-28T08:08:45;68.05;;;22.45;;
78344;SDS011;67620;51.134;6.548;2024-02-28T08:11:11;77.07;;;22.52;;
78344;SDS011;67620;51.134;6.548;2024-02-28T08:13:37;75.38;;;24.40;;
78344;SDS011;67620;51.134;6.548;2024-02-28T08:16:03;69.38;;;21.98;;
78344;SDS011;67620;51.134;6.548;2024-02-28T08:18:29;90.97;;;31.75;;
78344;SDS011;67620;51.134;6.548;2024-02-28T08:20:54;103.40;;;37.15;;
78344;SDS011;67620;51.134;6.548;2024-02-28T08:23:22;122.70;;;40.53;;
78344;SDS011;67620;51.134;6.548;2024-02-28T08:25:48;198.73;;;63.70;;
78344;SDS011;67620;51.134;6.548;2024-02-28T08:28:14;177.65;;;57.25;;
78344;SDS011;67620;51.134;6.548;2024-02-28T08:30:39;177.02;;;58.65;;
78344;SDS011;67620;51.134;6.548;2024-02-28T08:33:08;83.90;;;32.67;;
78344;SDS011;67620;51.134;6.548;2024-02-28T08:35:35;63.50;;;21.33;;
78344;SDS011;67620;51.134;6.548;2024-02-28T08:38:01;71.90;;;24.67;;
78344;SDS011;67620;51.134;6.548;2024-02-28T08:40:28;75.50;;;23.00;;
78344;SDS011;67620;51.134;6.548;2024-02-28T08:42:54;84.80;;;24.13;;
78344;SDS011;67620;51.134;6.548;2024-02-28T08:45:20;68.80;;;20.73;;
78344;SDS011;67620;51.134;6.548;2024-02-28T08:47:47;71.72;;;22.13;;
78344;SDS011;67620;51.134;6.548;2024-02-28T08:50:12;71.80;;;22.52;;
78344;SDS011;67620;51.134;6.548;2024-02-28T08:52:38;66.65;;;23.88;;
78344;SDS011;67620;51.134;6.548;2024-02-28T08:55:03;70.53;;;23.15;;
78344;SDS011;67620;51.134;6.548;2024-02-28T08:57:29;77.07;;;24.30;;
78344;SDS011;67620;51.134;6.548;2024-02-28T08:59:55;66.97;;;24.17;;
78344;SDS011;67620;51.134;6.548;2024-02-28T09:02:21;62.67;;;20.85;;
78344;SDS011;67620;51.134;6.548;2024-02-28T09:04:47;68.38;;;22.63;;
78344;SDS011;67620;51.134;6.548;2024-02-28T09:07:17;61.92;;;19.77;;
78344;SDS011;67620;51.134;6.548;2024-02-28T09:09:45;61.15;;;21.33;;
78344;SDS011;67620;51.134;6.548;2024-02-28T09:12:11;50.92;;;18.40;;
78344;SDS011;67620;51.134;6.548;2024-02-28T09:14:37;65.30;;;21.90;;
78344;SDS011;67620;51.134;6.548;2024-02-28T09:17:03;69.43;;;21.05;;
78344;SDS011;67620;51.134;6.548;2024-02-28T09:19:32;65.82;;;26.42;;
78344;SDS011;67620;51.134;6.548;2024-02-28T09:21:58;62.45;;;21.73;;
78344;SDS011;67620;51.134;6.548;2024-02-28T09:24:24;56.45;;;19.05;;
78344;SDS011;67620;51.134;6.548;2024-02-28T09:26:49;64.65;;;23.42;;
78344;SDS011;67620;51.134;6.548;2024-02-28T09:29:15;58.25;;;20.77;;
78344;SDS011;67620;51.134;6.548;2024-02-28T09:31:41;62.80;;;21.58;;
78344;SDS011;67620;51.134;6.548;2024-02-28T09:34:06;61.47;;;23.73;;
78344;SDS011;67620;51.134;6.548;2024-02-28T09:36:41;62.95;;;21.08;;
78344;SDS011;67620;51.134;6.548;2024-02-28T09:39:07;66.05;;;19.75;;
78344;SDS011;67620;51.134;6.548;2024-02-28T09:41:33;58.92;;;20.88;;
78344;SDS011;67620;51.134;6.548;2024-02-28T09:43:59;73.75;;;30.08;;
78344;SDS011;67620;51.134;6.548;2024-02-28T09:46:27;57.25;;;21.05;;
78344;SDS011;67620;51.134;6.548;2024-02-28T09:48:53;53.67;;;19.92;;
78344;SDS011;67620;51.134;6.548;2024-02-28T09:51:21;60.80;;;21.90;;
78344;SDS011;67620;51.134;6.548;2024-02-28T09:53:49;42.92;;;15.32;;
78344;SDS011;67620;51.134;6.548;2024-02-28T09:56:15;47.25;;;19.77;;
78344;SDS011;67620;51.134;6.548;2024-02-28T09:58:41;48.85;;;18.10;;
78344;SDS011;67620;51.134;6.548;2024-02-28T10:01:07;44.70;;;17.40;;
78344;SDS011;67620;51.134;6.548;2024-02-28T10:03:35;54.47;;;19.10;;
78344;SDS011;67620;51.134;6.548;2024-02-28T10:06:03;48.53;;;17.10;;
78344;SDS011;67620;51.134;6.548;2024-02-28T10:08:28;45.42;;;16.83;;
78344;SDS011;67620;51.134;6.548;2024-02-28T10:10:54;47.70;;;16.42;;
78344;SDS011;67620;51.134;6.548;2024-02-28T10:13:21;43.40;;;16.98;;
78344;SDS011;67620;51.134;6.548;2024-02-28T10:15:50;46.63;;;18.40;;
78344;SDS011;67620;51.134;6.548;2024-02-28T10:18:15;40.30;;;16.90;;
78344;SDS011;67620;51.134;6.548;2024-02-28T10:20:41;35.58;;;15.43;;
78344;SDS011;67620;51.134;6.548;2024-02-28T10:23:07;38.35;;;15.63;;
78344;SDS011;67620;51.134;6.548;2024-02-28T10:25:44;37.88;;;16.58;;
78344;SDS011;67620;51.134;6.548;2024-02-28T10:28:13;36.22;;;16.02;;
78344;SDS011;67620;51.134;6.548;2024-02-28T10:30:40;35.10;;;14.60;;
78344;SDS011;67620;51.134;6.548;2024-02-28T10:33:10;31.80;;;13.23;;
78344;SDS011;67620;51.134;6.548;2024-02-28T10:35:42;36.97;;;15.55;;
78344;SDS011;67620;51.134;6.548;2024-02-28T10:38:10;26.10;;;11.73;;
78344;SDS011;67620;51.134;6.548;2024-02-28T10:40:42;32.00;;;14.80;;
78344;SDS011;67620;51.134;6.548;2024-02-28T10:43:08;29.67;;;13.90;;
78344;SDS011;67620;51.134;6.548;2024-02-28T10:45:37;34.58;;;14.18;;
78344;SDS011;67620;51.134;6.548;2024-02-28T10:48:04;32.80;;;14.23;;
78344;SDS011;67620;51.134;6.548;2024-02-28T10:50:30;24.45;;;11.30;;
78344;SDS011;67620;51.134;6.548;2024-02-28T10:52:58;29.80;;;13.40;;
78344;SDS011;67620;51.134;6.548;2024-02-28T10:55:35;27.42;;;12.60;;
78344;SDS011;67620;51.134;6.548;2024-02-28T10:58:08;26.75;;;13.05;;
78344;SDS011;67620;51.134;6.548;2024-02-28T11:00:38;23.88;;;12.38;;
78344;SDS011;67620;51.134;6.548;2024-02-28T11:03:06;32.03;;;13.32;;
78344;SDS011;67620;51.134;6.548;2024-02-28T11:05:37;25.60;;;12.52;;
78344;SDS011;67620;51.134;6.548;2024-02-28T11:08:04;25.17;;;12.50;;
78344;SDS011;67620;51.134;6.548;2024-02-28T11:10:33;28.10;;;11.68;;
78344;SDS011;67620;51.134;6.548;2024-02-28T11:17:51;22.05;;;10.73;;
78344;SDS011;67620;51.134;6.548;2024-02-28T11:20:17;23.38;;;10.65;;
78344;SDS011;67620;51.134;6.548;2024-02-28T11:22:43;20.85;;;10.93;;
78344;SDS011;67620;51.134;6.548;2024-02-28T11:25:08;24.42;;;9.77;;
78344;SDS011;67620;51.134;6.548;2024-02-28T11:27:34;29.70;;;10.82;;
78344;SDS011;67620;51.134;6.548;2024-02-28T11:30:14;27.05;;;11.60;;
78344;SDS011;67620;51.134;6.548;2024-02-28T11:32:40;25.25;;;11.68;;
78344;SDS011;67620;51.134;6.548;2024-02-28T11:37:31;25.10;;;11.80;;
78344;SDS011;67620;51.134;6.548;2024-02-28T11:39:58;26.17;;;10.70;;
78344;SDS011;67620;51.134;6.548;2024-02-28T11:42:24;19.20;;;8.55;;
78344;SDS011;67620;51.134;6.548;2024-02-28T11:44:53;28.70;;;12.85;;
78344;SDS011;67620;51.134;6.548;2024-02-28T11:47:20;22.98;;;11.27;;
78344;SDS011;67620;51.134;6.548;2024-02-28T11:49:47;27.55;;;11.45;;
78344;SDS011;67620;51.134;6.548;2024-02-28T11:52:14;27.92;;;11.88;;
78344;SDS011;67620;51.134;6.548;2024-02-28T11:54:39;29.17;;;11.88;;
78344;SDS011;67620;51.134;6.548;2024-02-28T11:57:07;27.08;;;10.73;;
78344;SDS011;67620;51.134;6.548;2024-02-28T11:59:33;24.77;;;10.70;;
78344;SDS011;67620;51.134;6.548;2024-02-28T12:01:58;21.83;;;9.52;;
78344;SDS011;67620;51.134;6.548;2024-02-28T12:04:24;21.77;;;8.52;;
78344;SDS011;67620;51.134;6.548;2024-02-28T12:06:52;19.30;;;9.27;;
78344;SDS011;67620;51.134;6.548;2024-02-28T12:09:18;22.10;;;9.73;;
78344;SDS011;67620;51.134;6.548;2024-02-28T12:11:44;20.55;;;9.40;;
78344;SDS011;67620;51.134;6.548;2024-02-28T12:14:10;20.42;;;10.10;;
78344;SDS011;67620;51.134;6.548;2024-02-28T12:16:38;23.63;;;10.48;;
78344;SDS011;67620;51.134;6.548;2024-02-28T12:19:07;20.33;;;9.25;;
78344;SDS011;67620;51.134;6.548;2024-02-28T12:21:34;23.08;;;9.38;;
78344;SDS011;67620;51.134;6.548;2024-02-28T12:24:01;25.77;;;11.43;;
78344;SDS011;67620;51.134;6.548;2024-02-28T12:26:27;25.17;;;10.50;;
78344;SDS011;67620;51.134;6.548;2024-02-28T12:28:52;21.25;;;10.45;;
78344;SDS011;67620;51.134;6.548;2024-02-28T12:31:18;19.17;;;9.10;;
78344;SDS011;67620;51.134;6.548;2024-02-28T12:33:44;22.70;;;10.50;;
78344;SDS011;67620;51.134;6.548;2024-02-28T12:36:09;22.98;;;9.80;;
78344;SDS011;67620;51.134;6.548;2024-02-28T12:38:35;22.20;;;8.90;;
78344;SDS011;67620;51.134;6.548;2024-02-28T12:41:01;19.65;;;8.88;;
78344;SDS011;67620;51.134;6.548;2024-02-28T12:43:27;20.35;;;8.95;;
78344;SDS011;67620;51.134;6.548;2024-02-28T12:45:54;19.20;;;8.57;;
78344;SDS011;67620;51.134;6.548;2024-02-28T12:48:19;20.30;;;9.45;;
78344;SDS011;67620;51.134;6.548;2024-02-28T12:50:45;22.13;;;9.65;;
78344;SDS011;67620;51.134;6.548;2024-02-28T12:53:11;14.82;;;7.85;;
78344;SDS011;67620;51.134;6.548;2024-02-28T12:55:36;18.13;;;9.15;;
78344;SDS011;67620;51.134;6.548;2024-02-28T12:58:02;22.42;;;9.52;;
78344;SDS011;67620;51.134;6.548;2024-02-28T13:00:30;20.38;;;10.15;;
78344;SDS011;67620;51.134;6.548;2024-02-28T13:02:56;18.50;;;7.68;;
78344;SDS011;67620;51.134;6.548;2024-02-28T13:05:22;16.95;;;7.93;;
78344;SDS011;67620;51.134;6.548;2024-02-28T13:07:47;19.13;;;8.05;;
78344;SDS011;67620;51.134;6.548;2024-02-28T13:10:13;20.23;;;8.52;;
78344;SDS011;67620;51.134;6.548;2024-02-28T13:12:39;18.27;;;8.63;;
78344;SDS011;67620;51.134;6.548;2024-02-28T13:15:05;19.05;;;8.60;;
78344;SDS011;67620;51.134;6.548;2024-02-28T13:17:31;16.98;;;8.30;;
78344;SDS011;67620;51.134;6.548;2024-02-28T13:19:56;17.40;;;8.25;;
78344;SDS011;67620;51.134;6.548;2024-02-28T13:22:22;21.70;;;9.77;;
78344;SDS011;67620;51.134;6.548;2024-02-28T13:24:47;19.63;;;8.95;;
78344;SDS011;67620;51.134;6.548;2024-02-28T13:27:13;18.73;;;9.00;;
78344;SDS011;67620;51.134;6.548;2024-02-28T13:29:39;18.65;;;8.30;;
78344;SDS011;67620;51.134;6.548;2024-02-28T13:32:04;24.27;;;9.35;;
78344;SDS011;67620;51.134;6.548;2024-02-28T13:34:30;18.77;;;9.40;;
78344;SDS011;67620;51.134;6.548;2024-02-28T13:36:56;16.55;;;7.75;;
78344;SDS011;67620;51.134;6.548;2024-02-28T13:39:23;23.00;;;9.20;;
78344;SDS011;67620;51.134;6.548;2024-02-28T13:41:51;18.88;;;8.38;;
78344;SDS011;67620;51.134;6.548;2024-02-28T13:44:17;22.85;;;10.13;;
78344;SDS011;67620;51.134;6.548;2024-02-28T13:46:46;15.65;;;7.72;;
78344;SDS011;67620;51.134;6.548;2024-02-28T13:51:38;17.35;;;7.95;;
78344;SDS011;67620;51.134;6.548;2024-02-28T13:54:04;17.77;;;8.52;;
78344;SDS011;67620;51.134;6.548;2024-02-28T13:58:56;19.65;;;8.18;;
78344;SDS011;67620;51.134;6.548;2024-02-28T14:01:22;20.58;;;8.48;;
78344;SDS011;67620;51.134;6.548;2024-02-28T14:03:48;20.35;;;8.68;;
78344;SDS011;67620;51.134;6.548;2024-02-28T14:06:14;18.65;;;9.30;;
78344;SDS011;67620;51.134;6.548;2024-02-28T14:08:39;19.60;;;7.47;;
78344;SDS011;67620;51.134;6.548;2024-02-28T14:11:05;16.83;;;7.05;;
78344;SDS011;67620;51.134;6.548;2024-02-28T14:13:31;20.50;;;7.57;;
78344;SDS011;67620;51.134;6.548;2024-02-28T14:15:56;19.00;;;8.23;;
78344;SDS011;67620;51.134;6.548;2024-02-28T14:18:22;15.73;;;7.18;;
78344;SDS011;67620;51.134;6.548;2024-02-28T14:20:47;20.33;;;8.85;;
78344;SDS011;67620;51.134;6.548;2024-02-28T14:25:38;17.10;;;8.55;;
78344;SDS011;67620;51.134;6.548;2024-02-28T14:28:06;21.63;;;8.40;;
78344;SDS011;67620;51.134;6.548;2024-02-28T14:30:32;20.77;;;8.23;;
78344;SDS011;67620;51.134;6.548;2024-02-28T14:32:58;18.02;;;7.88;;
78344;SDS011;67620;51.134;6.548;2024-02-28T14:35:24;16.17;;;7.75;;
78344;SDS011;67620;51.134;6.548;2024-02-28T14:37:49;18.77;;;8.65;;
78344;SDS011;67620;51.134;6.548;2024-02-28T14:40:17;20.83;;;8.07;;
78344;SDS011;67620;51.134;6.548;2024-02-28T14:42:43;20.85;;;8.65;;
78344;SDS011;67620;51.134;6.548;2024-02-28T14:45:10;23.77;;;8.63;;